createdAt,value
2022-09-10T00:00:39.973Z,15.00
2022-09-10T00:03:17.425Z,13.00
2022-09-10T00:05:45.435Z,19.25
2022-09-10T00:08:12.268Z,15.75
2022-09-10T00:10:42.953Z,14.00
2022-09-10T00:13:11.456Z,17.00
2022-09-10T00:15:49.078Z,20.00
2022-09-10T00:18:18.209Z,14.75
2022-09-10T00:20:44.912Z,14.00
2022-09-10T00:23:11.910Z,16.00
2022-09-10T00:25:38.646Z,19.00
2022-09-10T00:28:05.691Z,22.00
2022-09-10T00:30:32.543Z,21.00
2022-09-10T00:32:59.413Z,17.00
2022-09-10T00:35:26.189Z,16.25
2022-09-10T00:37:53.116Z,13.00
2022-09-10T00:40:19.888Z,14.00
2022-09-10T00:42:49.229Z,12.00
2022-09-10T00:45:21.492Z,10.00
2022-09-10T00:47:50.994Z,9.00
2022-09-10T00:50:25.489Z,9.75
2022-09-10T00:52:55.242Z,18.75
2022-09-10T00:55:23.584Z,21.00
2022-09-10T00:57:54.367Z,18.00
2022-09-10T01:00:21.616Z,18.50
2022-09-10T01:02:49.053Z,14.50
2022-09-10T01:05:16.812Z,12.00
2022-09-10T01:07:44.238Z,15.75
2022-09-10T01:10:19.720Z,19.00
2022-09-10T01:12:46.807Z,14.00
2022-09-10T01:15:30.579Z,16.00
2022-09-10T01:18:09.201Z,19.00
2022-09-10T01:21:00.477Z,12.75
2022-09-10T01:23:46.192Z,15.75
2022-09-10T01:26:35.090Z,21.00
2022-09-10T01:29:28.432Z,14.50
2022-09-10T01:32:09.511Z,14.75
2022-09-10T01:34:51.310Z,14.00
2022-09-10T01:37:29.542Z,16.00
2022-09-10T01:39:59.793Z,12.00
2022-09-10T01:42:29.338Z,18.00
2022-09-10T01:44:57.916Z,11.75
2022-09-10T01:47:49.218Z,17.00
2022-09-10T01:50:31.570Z,11.50
2022-09-10T01:53:22.933Z,11.50
2022-09-10T01:56:13.210Z,9.00
2022-09-10T01:58:43.077Z,8.00
2022-09-10T02:01:36.358Z,13.25
2022-09-10T02:04:08.626Z,12.00
2022-09-10T02:06:39.959Z,14.00
2022-09-10T02:09:09.996Z,16.00
2022-09-10T02:11:53.031Z,12.50
2022-09-10T02:14:57.490Z,9.00
2022-09-10T02:17:48.982Z,14.00
2022-09-10T02:20:16.530Z,17.00
2022-09-10T02:22:52.296Z,13.00
2022-09-10T02:25:19.211Z,10.00
2022-09-10T02:27:46.101Z,7.00
2022-09-10T02:30:13.464Z,12.50
2022-09-10T02:32:40.314Z,12.50
2022-09-10T02:35:07.748Z,10.25
2022-09-10T02:37:34.727Z,6.50
2022-09-10T02:40:02.074Z,4.25
2022-09-10T02:42:28.999Z,6.00
2022-09-10T02:44:56.509Z,10.50
2022-09-10T02:47:23.318Z,8.00
2022-09-10T02:49:50.095Z,9.00
2022-09-10T02:52:16.940Z,8.00
2022-09-10T02:54:43.764Z,10.50
2022-09-10T02:57:10.674Z,17.25
2022-09-10T02:59:37.475Z,23.00
2022-09-10T03:02:04.486Z,24.00
2022-09-10T03:04:31.313Z,20.00
2022-09-10T03:06:58.202Z,18.00
2022-09-10T03:09:26.044Z,16.75
2022-09-10T03:11:53.427Z,21.50
2022-09-10T03:14:20.199Z,26.00
2022-09-10T03:16:47.724Z,27.75
2022-09-10T03:19:15.042Z,23.00
2022-09-10T03:21:42.668Z,27.00
2022-09-10T03:24:12.641Z,23.75
2022-09-10T03:27:02.473Z,21.25
2022-09-10T03:29:29.459Z,19.00
2022-09-10T03:31:56.613Z,22.25
2022-09-10T03:34:24.011Z,28.75
2022-09-10T03:36:50.827Z,26.00
2022-09-10T03:39:17.686Z,30.50
2022-09-10T03:41:45.327Z,31.00
2022-09-10T03:44:14.121Z,32.00
2022-09-10T03:46:40.916Z,31.00
2022-09-10T03:49:08.185Z,30.50
2022-09-10T03:51:35.386Z,31.00
2022-09-10T03:54:03.260Z,31.00
2022-09-10T03:56:32.257Z,27.50
2022-09-10T03:58:59.085Z,28.00
2022-09-10T04:01:28.054Z,26.00
2022-09-10T04:03:56.736Z,26.50
2022-09-10T04:06:25.534Z,31.50
2022-09-10T04:08:52.841Z,31.50
2022-09-10T04:11:41.680Z,32.00
2022-09-10T04:14:11.654Z,30.00
2022-09-10T04:16:41.388Z,28.00
2022-09-10T04:19:11.512Z,26.00
2022-09-10T04:21:38.376Z,28.75
2022-09-10T04:24:05.349Z,30.00
2022-09-10T04:26:32.275Z,31.25
2022-09-10T04:28:59.040Z,27.25
2022-09-10T04:31:25.898Z,25.00
2022-09-10T04:34:01.758Z,25.50
2022-09-10T04:36:29.009Z,23.00
2022-09-10T04:38:56.551Z,27.00
2022-09-10T04:41:23.496Z,22.50
2022-09-10T04:43:50.324Z,25.00
2022-09-10T04:46:17.403Z,25.75
2022-09-10T04:48:44.702Z,25.75
2022-09-10T04:51:16.804Z,29.00
2022-09-10T04:53:49.594Z,32.00
2022-09-10T04:56:17.324Z,29.00
2022-09-10T04:58:44.718Z,32.00
2022-09-10T05:01:13.025Z,32.00
2022-09-10T05:03:42.347Z,33.00
2022-09-10T05:06:12.006Z,29.00
2022-09-10T05:08:39.130Z,29.00
2022-09-10T05:11:06.411Z,33.50
2022-09-10T05:13:33.760Z,39.00
2022-09-10T05:16:01.652Z,35.00
2022-09-10T05:18:30.586Z,35.00
2022-09-10T05:20:57.656Z,32.00
2022-09-10T05:23:24.836Z,31.00
2022-09-10T05:25:53.637Z,33.00
2022-09-10T05:28:20.444Z,35.00
2022-09-10T05:30:51.565Z,33.00
2022-09-10T05:33:21.861Z,32.00
2022-09-10T05:35:49.973Z,33.00
2022-09-10T05:38:17.237Z,28.00
2022-09-10T05:40:44.921Z,29.25
2022-09-10T05:43:11.959Z,33.00
2022-09-10T05:45:38.919Z,32.00
2022-09-10T05:48:06.992Z,32.00
2022-09-10T05:50:34.391Z,29.25
2022-09-10T05:53:01.347Z,27.00
2022-09-10T05:55:29.756Z,29.00
2022-09-10T05:57:56.782Z,30.75
2022-09-10T06:00:23.984Z,32.00
2022-09-10T06:02:58.108Z,31.75
2022-09-10T06:05:36.758Z,33.00
2022-09-10T06:08:26.777Z,32.50
2022-09-10T06:11:03.629Z,28.00
2022-09-10T06:13:39.561Z,29.25
2022-09-10T06:16:06.531Z,29.50
2022-09-10T06:18:34.283Z,27.00
2022-09-10T06:21:08.925Z,27.00
2022-09-10T06:23:35.901Z,28.00
2022-09-10T06:26:05.463Z,28.00
2022-09-10T06:28:34.902Z,27.00
2022-09-10T06:31:02.764Z,27.00
2022-09-10T06:33:32.531Z,27.50
2022-09-10T06:36:01.049Z,27.25
2022-09-10T06:38:32.037Z,29.50
2022-09-10T06:41:01.314Z,30.50
2022-09-10T06:43:36.557Z,30.00
2022-09-10T06:46:40.779Z,26.00
2022-09-10T06:49:07.651Z,26.25
2022-09-10T06:51:36.365Z,30.50
2022-09-10T06:54:04.744Z,28.00
2022-09-10T06:56:32.410Z,31.00
2022-09-10T06:59:02.601Z,30.00
2022-09-10T07:01:44.996Z,30.25
2022-09-10T07:04:11.903Z,29.00
2022-09-10T07:06:47.822Z,32.00
2022-09-10T07:09:16.363Z,32.00
2022-09-10T07:11:53.495Z,31.00
2022-09-10T07:14:20.569Z,31.00
2022-09-10T07:16:47.695Z,29.00
2022-09-10T07:19:18.871Z,31.00
2022-09-10T07:21:47.630Z,29.00
2022-09-10T07:24:16.333Z,29.25
2022-09-10T07:27:00.098Z,31.00
2022-09-10T07:29:27.525Z,32.00
2022-09-10T07:31:55.228Z,32.00
2022-09-10T07:34:24.388Z,30.00
2022-09-10T07:36:51.226Z,31.75
2022-09-10T07:39:25.395Z,33.00
2022-09-10T07:41:53.341Z,32.50
2022-09-10T07:44:46.394Z,33.00
2022-09-10T07:47:13.500Z,33.00
2022-09-10T07:49:40.321Z,33.00
2022-09-10T07:52:11.210Z,34.00
2022-09-10T07:54:49.247Z,33.00
2022-09-10T07:57:16.321Z,33.00
2022-09-10T07:59:43.396Z,33.25
2022-09-10T08:02:14.910Z,34.00
2022-09-10T08:04:45.194Z,32.75
2022-09-10T08:07:12.053Z,32.00
2022-09-10T08:09:41.044Z,33.00
2022-09-10T08:12:10.339Z,32.50
2022-09-10T08:14:37.274Z,33.00
2022-09-10T08:17:04.723Z,33.00
2022-09-10T08:19:36.243Z,33.75
2022-09-10T08:22:03.436Z,33.00
2022-09-10T08:24:39.048Z,33.00
2022-09-10T08:27:10.370Z,33.50
2022-09-10T08:29:37.466Z,36.00
2022-09-10T08:32:06.330Z,35.00
2022-09-10T08:34:34.313Z,35.75
2022-09-10T08:37:14.737Z,34.00
2022-09-10T08:39:42.390Z,33.50
2022-09-10T08:42:28.292Z,33.50
2022-09-10T08:45:11.740Z,35.00
2022-09-10T08:47:53.650Z,34.00
2022-09-10T08:50:45.968Z,34.00
2022-09-10T08:54:00.031Z,39.25
2022-09-10T08:56:27.937Z,38.00
2022-09-10T08:59:01.201Z,36.50
2022-09-10T09:01:47.651Z,35.00
2022-09-10T09:04:27.917Z,35.00
2022-09-10T09:07:12.159Z,35.50
2022-09-10T09:09:42.925Z,36.50
2022-09-10T09:12:19.061Z,36.00
2022-09-10T09:15:02.386Z,36.00
2022-09-10T09:17:57.165Z,35.50
2022-09-10T09:20:48.686Z,36.00
2022-09-10T09:24:18.039Z,36.00
2022-09-10T09:26:53.499Z,35.00
2022-09-10T09:29:29.536Z,35.00
2022-09-10T09:32:03.228Z,35.00
2022-09-10T09:34:39.289Z,35.00
2022-09-10T09:37:26.294Z,37.00
2022-09-10T09:40:12.870Z,35.00
2022-09-10T09:43:10.823Z,34.00
2022-09-10T09:45:40.123Z,34.50
2022-09-10T09:48:12.292Z,36.00
2022-09-10T09:50:42.072Z,36.50
2022-09-10T09:53:18.031Z,35.50
2022-09-10T09:55:49.716Z,37.00
2022-09-10T09:58:22.756Z,35.50
2022-09-10T10:00:54.779Z,35.00
2022-09-10T10:03:27.780Z,35.00
2022-09-10T10:06:02.477Z,36.00
2022-09-10T10:08:53.656Z,35.00
2022-09-10T10:11:22.317Z,35.00
2022-09-10T10:13:50.305Z,34.00
2022-09-10T10:16:32.241Z,35.00
2022-09-10T10:19:02.843Z,34.00
2022-09-10T10:21:34.745Z,34.00
2022-09-10T10:24:29.991Z,34.00
2022-09-10T10:26:56.950Z,35.00
2022-09-10T10:29:23.814Z,33.00
2022-09-10T10:31:51.866Z,34.00
2022-09-10T10:34:36.764Z,34.00
2022-09-10T10:37:14.344Z,34.00
2022-09-10T10:40:18.640Z,34.00
2022-09-10T10:42:59.422Z,34.00
2022-09-10T10:45:35.237Z,35.00
2022-09-10T10:48:17.364Z,36.00
2022-09-10T10:50:57.967Z,35.00
2022-09-10T10:53:27.346Z,34.00
2022-09-10T10:56:06.569Z,35.00
2022-09-10T10:58:42.417Z,35.00
2022-09-10T11:01:24.663Z,35.00
2022-09-10T11:04:13.909Z,35.25
2022-09-10T11:06:49.988Z,35.00
2022-09-10T11:09:25.994Z,36.00
2022-09-10T11:11:57.580Z,37.00
2022-09-10T11:14:36.161Z,36.00
2022-09-10T11:17:12.347Z,36.50
2022-09-10T11:19:46.760Z,36.00
2022-09-10T11:22:19.416Z,37.00
2022-09-10T11:24:58.213Z,36.00
2022-09-10T11:27:35.157Z,36.00
2022-09-10T11:30:10.344Z,36.00
2022-09-10T11:32:51.705Z,35.00
2022-09-10T11:35:33.879Z,34.25
2022-09-10T11:38:26.381Z,37.00
2022-09-10T11:40:59.114Z,36.00
2022-09-10T11:43:30.535Z,36.00
2022-09-10T11:46:02.824Z,35.00
2022-09-10T11:49:07.540Z,36.00
2022-09-10T11:51:37.309Z,35.00
2022-09-10T11:54:10.093Z,37.00
2022-09-10T11:56:55.742Z,36.00
2022-09-10T11:59:41.212Z,35.00
2022-09-10T12:02:32.121Z,34.00
2022-09-10T12:05:29.912Z,34.00
2022-09-10T12:08:27.956Z,34.00
2022-09-10T12:11:33.794Z,34.00
2022-09-10T12:14:27.529Z,34.00
2022-09-10T12:17:23.602Z,34.00
2022-09-10T12:19:55.257Z,34.00
2022-09-10T12:22:26.281Z,35.00
2022-09-10T12:24:59.696Z,34.25
2022-09-10T12:27:48.348Z,34.00
2022-09-10T12:30:27.600Z,35.00
2022-09-10T12:32:55.864Z,34.50
2022-09-10T12:35:31.863Z,35.00
2022-09-10T12:38:36.274Z,35.50
2022-09-10T12:41:04.990Z,36.00
2022-09-10T12:43:40.794Z,36.00
2022-09-10T12:46:10.405Z,34.00
2022-09-10T12:48:45.681Z,35.00
2022-09-10T12:51:41.742Z,34.00
2022-09-10T12:54:21.068Z,33.00
2022-09-10T12:57:29.482Z,33.25
2022-09-10T13:00:11.511Z,33.00
2022-09-10T13:03:00.126Z,34.00
2022-09-10T13:05:45.080Z,34.00
2022-09-10T13:08:22.813Z,33.25
2022-09-10T13:11:18.690Z,35.00
2022-09-10T13:14:00.649Z,34.00
2022-09-10T13:16:27.498Z,33.25
2022-09-10T13:19:14.161Z,33.50
2022-09-10T13:21:41.152Z,33.50
2022-09-10T13:24:35.609Z,33.00
2022-09-10T13:27:08.631Z,32.00
2022-09-10T13:29:40.182Z,32.00
2022-09-10T13:32:28.477Z,33.00
2022-09-10T13:35:21.799Z,32.00
2022-09-10T13:38:15.812Z,32.00
2022-09-10T13:41:14.367Z,34.00
2022-09-10T13:44:13.897Z,34.00
2022-09-10T13:46:48.455Z,32.00
2022-09-10T13:49:37.184Z,32.00
2022-09-10T13:52:11.556Z,33.00
2022-09-10T13:54:44.066Z,32.00
2022-09-10T13:57:32.394Z,33.25
2022-09-10T14:00:22.533Z,33.75
2022-09-10T14:02:50.780Z,34.50
2022-09-10T14:05:29.105Z,35.75
2022-09-10T14:08:03.086Z,33.75
2022-09-10T14:10:31.409Z,34.00
2022-09-10T14:12:59.638Z,34.00
2022-09-10T14:15:37.999Z,34.75
2022-09-10T14:18:05.700Z,34.75
2022-09-10T14:20:35.078Z,34.50
2022-09-10T14:23:13.130Z,34.00
2022-09-10T14:25:42.803Z,35.00
2022-09-10T14:28:12.292Z,35.00
2022-09-10T14:31:02.264Z,34.50
2022-09-10T14:33:33.880Z,34.50
2022-09-10T14:36:28.986Z,34.00
2022-09-10T14:39:02.091Z,32.00
2022-09-10T14:41:39.841Z,32.00
2022-09-10T14:44:19.174Z,33.00
2022-09-10T14:47:07.926Z,34.00
2022-09-10T14:49:37.978Z,39.50
2022-09-10T14:52:06.100Z,37.50
2022-09-10T14:54:34.417Z,36.00
2022-09-10T14:57:04.946Z,35.50
2022-09-10T14:59:34.706Z,37.00
2022-09-10T15:02:05.782Z,36.00
2022-09-10T15:04:50.452Z,35.50
2022-09-10T15:07:17.481Z,37.00
2022-09-10T15:09:44.735Z,36.00
2022-09-10T15:12:25.245Z,37.00
2022-09-10T15:14:54.833Z,38.00
2022-09-10T15:17:21.849Z,39.50
2022-09-10T15:19:48.686Z,39.00
2022-09-10T15:22:27.146Z,40.00
2022-09-10T15:25:11.427Z,39.00
2022-09-10T15:27:38.757Z,40.00
2022-09-10T15:30:06.605Z,42.75
2022-09-10T15:32:33.696Z,40.75
2022-09-10T15:35:00.478Z,37.00
2022-09-10T15:37:46.089Z,38.00
2022-09-10T15:40:12.958Z,39.75
2022-09-10T15:43:09.750Z,39.00
2022-09-10T15:45:36.694Z,38.00
2022-09-10T15:48:04.877Z,36.75
2022-09-10T15:50:31.867Z,37.00
2022-09-10T15:52:59.336Z,35.00
2022-09-10T15:55:26.308Z,37.00
2022-09-10T15:57:53.180Z,36.25
2022-09-10T16:00:20.359Z,35.00
2022-09-10T16:02:53.287Z,35.00
2022-09-10T16:05:21.463Z,38.00
2022-09-10T16:07:48.482Z,36.25
2022-09-10T16:10:16.626Z,35.00
2022-09-10T16:12:43.524Z,34.50
2022-09-10T16:15:10.837Z,35.00
2022-09-10T16:18:04.304Z,37.00
2022-09-10T16:20:38.833Z,37.50
2022-09-10T16:23:06.012Z,48.50
2022-09-10T16:25:32.839Z,42.50
2022-09-10T16:27:59.750Z,52.00
2022-09-10T16:30:53.259Z,55.00
2022-09-10T16:33:20.527Z,45.75
2022-09-10T16:35:47.784Z,40.25
2022-09-10T16:38:14.752Z,39.00
2022-09-10T16:41:34.124Z,43.25
2022-09-10T16:44:01.243Z,40.00
2022-09-10T16:46:34.647Z,41.00
2022-09-10T16:49:11.475Z,51.00
2022-09-10T16:51:39.018Z,47.50
2022-09-10T16:54:07.346Z,43.00
2022-09-10T16:56:36.972Z,40.00
2022-09-10T16:59:05.039Z,42.25
2022-09-10T17:01:31.944Z,45.75
2022-09-10T17:04:33.438Z,43.00
2022-09-10T17:07:00.322Z,43.00
2022-09-10T17:09:27.247Z,42.00
2022-09-10T17:11:54.579Z,42.00
2022-09-10T17:14:47.504Z,61.75
2022-09-10T17:17:14.717Z,51.25
2022-09-10T17:19:44.069Z,43.50
2022-09-10T17:22:10.937Z,41.00
2022-09-10T17:24:37.776Z,40.00
2022-09-10T17:27:04.756Z,37.00
2022-09-10T17:29:31.589Z,40.00
2022-09-10T17:31:58.664Z,40.50
2022-09-10T17:34:25.454Z,41.50
2022-09-10T17:36:52.501Z,42.25
2022-09-10T17:39:22.191Z,44.00
2022-09-10T17:41:49.273Z,43.00
2022-09-10T17:44:16.145Z,45.75
2022-09-10T17:46:43.120Z,44.00
2022-09-10T17:49:13.485Z,44.00
2022-09-10T17:51:40.830Z,44.75
2022-09-10T17:54:08.484Z,44.50
2022-09-10T17:56:36.417Z,42.00
2022-09-10T17:59:04.645Z,41.00
2022-09-10T18:01:38.179Z,41.00
2022-09-10T18:04:06.390Z,45.75
2022-09-10T18:06:35.995Z,49.50
2022-09-10T18:09:04.033Z,47.00
2022-09-10T18:11:34.703Z,42.00
2022-09-10T18:14:05.327Z,40.00
2022-09-10T18:16:34.125Z,39.00
2022-09-10T18:19:04.408Z,41.00
2022-09-10T18:21:33.733Z,42.00
2022-09-10T18:24:09.981Z,46.00
2022-09-10T18:26:39.923Z,42.25
2022-09-10T18:29:17.996Z,41.00
2022-09-10T18:31:48.367Z,40.00
2022-09-10T18:34:22.583Z,40.00
2022-09-10T18:36:52.120Z,41.50
2022-09-10T18:39:19.030Z,39.25
2022-09-10T18:41:52.557Z,42.00
2022-09-10T18:44:26.948Z,40.00
2022-09-10T18:46:54.642Z,39.00
2022-09-10T18:49:23.761Z,38.50
2022-09-10T18:51:51.938Z,36.00
2022-09-10T18:54:20.548Z,38.50
2022-09-10T18:56:48.406Z,37.00
2022-09-10T18:59:18.418Z,37.00
2022-09-10T19:01:46.159Z,39.00
2022-09-10T19:04:17.294Z,38.50
2022-09-10T19:06:46.066Z,66.75
2022-09-10T19:09:19.001Z,48.25
2022-09-10T19:11:47.924Z,42.00
2022-09-10T19:14:20.981Z,44.00
2022-09-10T19:16:49.975Z,43.00
2022-09-10T19:19:22.290Z,40.50
2022-09-10T19:21:55.436Z,39.00
2022-09-10T19:24:37.812Z,38.25
2022-09-10T19:27:09.538Z,38.50
2022-09-10T19:29:52.899Z,40.00
2022-09-10T19:32:20.207Z,44.00
2022-09-10T19:34:53.089Z,56.75
2022-09-10T19:37:20.181Z,90.75
2022-09-10T19:39:47.991Z,56.75
2022-09-10T19:42:15.146Z,47.25
2022-09-10T19:44:43.291Z,45.00
2022-09-10T19:47:10.185Z,45.00
2022-09-10T19:49:42.791Z,48.50
2022-09-10T19:52:09.756Z,45.75
2022-09-10T19:54:39.378Z,47.50
2022-09-10T19:57:06.206Z,51.75
2022-09-10T19:59:32.983Z,51.00
2022-09-10T20:02:00.004Z,63.00
2022-09-10T20:04:50.054Z,52.75
2022-09-10T20:07:16.962Z,51.75
2022-09-10T20:09:43.720Z,52.75
2022-09-10T20:12:10.747Z,51.00
2022-09-10T20:14:37.481Z,48.00
2022-09-10T20:17:06.758Z,46.00
2022-09-10T20:19:33.643Z,48.00
2022-09-10T20:22:00.428Z,48.50
2022-09-10T20:24:27.175Z,44.50
2022-09-10T20:26:54.262Z,47.00
2022-09-10T20:29:21.120Z,47.00
2022-09-10T20:31:49.119Z,48.25
2022-09-10T20:34:21.387Z,45.00
2022-09-10T20:36:50.568Z,41.50
2022-09-10T20:39:22.477Z,44.50
2022-09-10T20:41:49.508Z,45.00
2022-09-10T20:44:52.268Z,42.00
2022-09-10T20:47:21.700Z,40.25
2022-09-10T20:49:48.556Z,45.00
2022-09-10T20:52:15.437Z,44.50
2022-09-10T20:54:42.301Z,47.75
2022-09-10T20:57:09.585Z,51.75
2022-09-10T20:59:38.102Z,53.00
2022-09-10T21:02:13.138Z,49.25
2022-09-10T21:04:40.502Z,46.00
2022-09-10T21:07:07.408Z,43.00
2022-09-10T21:09:44.952Z,43.00
2022-09-10T21:12:11.966Z,39.00
2022-09-10T21:14:38.883Z,35.00
2022-09-10T21:17:08.521Z,35.00
2022-09-10T21:19:35.285Z,36.00
2022-09-10T21:22:02.229Z,35.50
2022-09-10T21:24:29.235Z,37.00
2022-09-10T21:26:56.072Z,37.00
2022-09-10T21:29:22.974Z,37.00
2022-09-10T21:31:49.873Z,34.00
2022-09-10T21:34:16.675Z,34.75
2022-09-10T21:36:43.778Z,31.75
2022-09-10T21:39:18.105Z,29.25
2022-09-10T21:41:47.425Z,29.00
2022-09-10T21:44:19.234Z,27.00
2022-09-10T21:46:47.457Z,33.00
2022-09-10T21:49:15.110Z,32.50
2022-09-10T21:51:42.643Z,29.50
2022-09-10T21:54:21.209Z,32.50
2022-09-10T21:56:54.934Z,29.00
2022-09-10T21:59:21.802Z,30.00
2022-09-10T22:01:56.229Z,27.00
2022-09-10T22:04:23.490Z,31.00
2022-09-10T22:06:50.691Z,28.00
2022-09-10T22:09:17.870Z,25.00
2022-09-10T22:12:05.018Z,24.75
2022-09-10T22:14:32.108Z,25.00
2022-09-10T22:16:58.933Z,23.50
2022-09-10T22:19:26.367Z,32.00
2022-09-10T22:21:53.682Z,39.00
2022-09-10T22:24:20.643Z,31.50
2022-09-10T22:26:50.562Z,27.25
2022-09-10T22:29:19.364Z,28.50
2022-09-10T22:31:46.993Z,32.00
2022-09-10T22:34:16.013Z,27.50
2022-09-10T22:36:44.804Z,26.00
2022-09-10T22:39:15.328Z,28.75
2022-09-10T22:41:43.661Z,33.25
2022-09-10T22:44:10.859Z,32.00
2022-09-10T22:46:38.614Z,33.50
2022-09-10T22:49:07.314Z,32.00
2022-09-10T22:51:36.975Z,33.00
2022-09-10T22:54:05.042Z,33.00
2022-09-10T22:56:32.547Z,28.25
2022-09-10T22:59:00.272Z,32.50
2022-09-10T23:01:34.872Z,32.00
2022-09-10T23:04:03.536Z,31.75
2022-09-10T23:06:32.976Z,32.00
2022-09-10T23:09:17.899Z,34.00
2022-09-10T23:11:45.352Z,31.00
2022-09-10T23:14:15.572Z,27.75
2022-09-10T23:16:44.816Z,25.75
2022-09-10T23:19:13.978Z,28.75
2022-09-10T23:21:50.033Z,31.75
2022-09-10T23:24:20.094Z,29.00
2022-09-10T23:26:46.891Z,25.50
2022-09-10T23:29:15.090Z,29.75
2022-09-10T23:31:49.243Z,32.75
2022-09-10T23:34:18.703Z,26.25
2022-09-10T23:36:47.373Z,31.25
2022-09-10T23:39:17.818Z,32.00
2022-09-10T23:41:44.666Z,31.00
2022-09-10T23:44:11.703Z,27.00
2022-09-10T23:46:38.872Z,24.00
2022-09-10T23:49:05.890Z,30.75
2022-09-10T23:51:32.646Z,31.00
2022-09-10T23:53:59.515Z,31.00
2022-09-10T23:56:26.858Z,30.25
2022-09-10T23:58:53.692Z,27.50
